Time;durP1;ratioP1;P1;durP2;ratioP2;P2;SDS_P1;SDS_P2;PMS_P1;PMS_P2;Temp;Humidity;BMP_temperature;BMP_pressure;BME280_temperature;BME280_humidity;BME280_pressure;Samples;Min_cycle;Max_cycle;Signal;HPM_P1;HPM_P2
2023/12/31 00:01:49;;;;;;;0.93;0.75;;;;;;;10.14;80.13;100347.03;5082183;28;20028;-71
2023/12/31 00:04:14;;;;;;;1.60;0.85;;;;;;;10.09;79.89;100346.41;5084680;28;20036;-71
2023/12/31 00:06:40;;;;;;;1.60;0.77;;;;;;;10.08;79.82;100336.78;5062960;28;20020;-71
2023/12/31 00:09:05;;;;;;;1.73;0.82;;;;;;;10.05;80.19;100325.47;5070787;28;20046;-71
2023/12/31 00:11:30;;;;;;;1.13;0.95;;;;;;;10.07;80.38;100319.22;5075133;28;20048;-71
2023/12/31 00:13:56;;;;;;;1.75;1.00;;;;;;;10.07;79.41;100311.28;5076472;28;20063;-71
2023/12/31 00:16:21;;;;;;;2.40;0.90;;;;;;;10.11;79.18;100310.19;5080573;28;20035;-71
2023/12/31 00:18:46;;;;;;;2.20;1.10;;;;;;;10.02;79.65;100315.06;5077811;28;20402;-71
2023/12/31 00:21:12;;;;;;;1.52;0.70;;;;;;;10.01;79.00;100313.34;5076619;28;20031;-72
2023/12/31 00:23:37;;;;;;;2.42;0.73;;;;;;;10.09;78.69;100293.56;5079691;28;20034;-71
2023/12/31 00:26:03;;;;;;;2.08;1.08;;;;;;;10.11;78.15;100289.06;5084820;28;20057;-72
2023/12/31 00:28:28;;;;;;;1.85;0.90;;;;;;;10.13;77.94;100278.44;5083454;28;20130;-71
2023/12/31 00:30:53;;;;;;;0.73;0.73;;;;;;;10.10;78.37;100279.44;5083166;28;20123;-71
2023/12/31 00:33:19;;;;;;;2.42;0.82;;;;;;;9.91;78.75;100268.03;5075029;28;20032;-71
2023/12/31 00:35:44;;;;;;;3.40;1.45;;;;;;;10.05;78.17;100273.50;5080057;28;20142;-71
2023/12/31 00:38:09;;;;;;;2.35;1.00;;;;;;;10.03;77.63;100266.59;5083512;28;20102;-71
2023/12/31 00:40:37;;;;;;;3.00;1.10;;;;;;;10.08;77.55;100256.69;5080643;28;20741;-71
2023/12/31 00:43:03;;;;;;;1.27;0.77;;;;;;;10.03;76.75;100248.97;5069855;28;20052;-72
2023/12/31 00:45:28;;;;;;;3.63;1.10;;;;;;;10.05;77.73;100246.25;5079420;28;20030;-72
2023/12/31 00:47:54;;;;;;;1.23;0.80;;;;;;;10.01;78.42;100247.31;5080234;28;20027;-72
2023/12/31 00:50:22;;;;;;;2.05;0.90;;;;;;;9.92;77.94;100233.63;5084353;28;20054;-71
2023/12/31 00:52:47;;;;;;;1.85;0.88;;;;;;;10.00;77.41;100232.41;5082977;28;20023;-71
2023/12/31 00:55:13;;;;;;;1.20;0.95;;;;;;;10.03;77.04;100232.28;5077342;28;21699;-71
2023/12/31 00:57:38;;;;;;;2.38;0.90;;;;;;;9.99;77.38;100220.16;5086951;28;20062;-71
2023/12/31 01:00:05;;;;;;;2.00;1.15;;;;;;;9.99;76.51;100221.00;5080016;28;20016;-71
2023/12/31 01:02:30;;;;;;;4.82;1.00;;;;;;;10.03;76.71;100227.84;5080237;28;20463;-71
2023/12/31 01:04:56;;;;;;;1.48;1.10;;;;;;;10.03;76.92;100225.22;5084666;28;20020;-71
2023/12/31 01:07:21;;;;;;;2.65;0.77;;;;;;;10.08;76.10;100227.63;5083418;28;20379;-71
2023/12/31 01:09:47;;;;;;;1.05;0.90;;;;;;;10.08;76.51;100227.63;5088760;28;20063;-69
2023/12/31 01:12:13;;;;;;;3.83;1.00;;;;;;;10.02;76.18;100204.97;5079190;28;20420;-69
2023/12/31 01:14:38;;;;;;;0.82;0.80;;;;;;;10.00;76.64;100208.66;5084677;28;20024;-68
2023/12/31 01:17:04;;;;;;;3.22;1.30;;;;;;;10.00;76.90;100204.22;5079379;28;20051;-69
2023/12/31 01:19:29;;;;;;;0.80;0.80;;;;;;;9.96;76.29;100194.72;5081618;28;20395;-69
2023/12/31 01:21:57;;;;;;;2.85;1.02;;;;;;;9.90;76.63;100181.84;5088693;28;20020;-69
2023/12/31 01:24:23;;;;;;;2.55;0.95;;;;;;;9.96;76.17;100189.44;5082611;28;20043;-69
2023/12/31 01:26:48;;;;;;;3.15;0.80;;;;;;;9.95;76.38;100188.59;5085752;28;20120;-69
2023/12/31 01:29:14;;;;;;;2.90;0.80;;;;;;;9.96;76.11;100178.88;5080817;28;20102;-69
2023/12/31 01:31:39;;;;;;;0.80;0.80;;;;;;;10.02;75.31;100172.44;5080459;28;20482;-69
2023/12/31 01:34:05;;;;;;;2.47;0.90;;;;;;;10.09;75.45;100171.22;5088483;28;20416;-68
2023/12/31 01:36:30;;;;;;;0.88;0.82;;;;;;;10.13;75.36;100178.06;5083941;28;20051;-69
2023/12/31 01:38:55;;;;;;;2.20;1.00;;;;;;;10.09;75.29;100160.66;5078923;28;20028;-69
2023/12/31 01:41:21;;;;;;;0.77;0.77;;;;;;;10.05;74.99;100169.66;5098723;28;20043;-68
2023/12/31 01:43:46;;;;;;;1.00;0.90;;;;;;;10.08;74.73;100162.44;5101078;28;20032;-69
2023/12/31 01:46:24;;;;;;;2.20;1.15;;;;;;;10.01;75.06;100153.09;5083372;28;20491;-69
2023/12/31 01:48:49;;;;;;;2.08;0.90;;;;;;;10.05;74.71;100151.19;5079864;28;20028;-69
2023/12/31 01:51:14;;;;;;;1.42;0.98;;;;;;;10.08;74.94;100151.88;5095116;28;20043;-68
2023/12/31 01:53:40;;;;;;;1.05;0.80;;;;;;;10.03;74.44;100137.22;5090985;28;20060;-68
2023/12/31 01:56:05;;;;;;;1.17;0.70;;;;;;;10.05;74.98;100148.53;5084361;28;20142;-68
2023/12/31 01:58:31;;;;;;;2.05;0.95;;;;;;;9.96;75.70;100144.56;5087304;28;20036;-69
2023/12/31 02:00:56;;;;;;;2.40;0.90;;;;;;;9.99;75.39;100139.13;5083536;28;20115;-69
2023/12/31 02:03:24;;;;;;;1.10;0.90;;;;;;;9.96;75.57;100126.94;5080879;28;20106;-68
2023/12/31 02:05:49;;;;;;;1.00;0.90;;;;;;;9.91;75.67;100117.53;5093085;28;21930;-68
2023/12/31 02:08:15;;;;;;;1.55;0.80;;;;;;;9.95;74.57;100116.44;5076093;28;20083;-68
2023/12/31 02:10:40;;;;;;;4.13;1.25;;;;;;;10.02;73.74;100130.19;5074643;28;20024;-71
2023/12/31 02:13:05;;;;;;;2.53;0.95;;;;;;;10.04;74.61;100123.06;5072412;28;20052;-71
2023/12/31 02:15:32;;;;;;;3.13;1.10;;;;;;;9.95;74.54;100108.53;5081195;28;20302;-71
2023/12/31 02:18:02;;;;;;;1.65;0.80;;;;;;;9.93;75.21;100105.97;5082825;28;20046;-71
2023/12/31 02:20:31;;;;;;;3.53;1.05;;;;;;;10.03;74.44;100100.22;5070831;28;20435;-71
2023/12/31 02:22:57;;;;;;;1.35;0.80;;;;;;;9.97;75.50;100093.44;5076362;28;20367;-71
2023/12/31 02:25:24;;;;;;;1.48;0.80;;;;;;;9.96;74.55;100078.53;5090328;28;20024;-71
2023/12/31 02:27:50;;;;;;;2.72;0.93;;;;;;;10.02;74.29;100069.44;5084622;28;20036;-71
2023/12/31 02:30:15;;;;;;;1.50;1.02;;;;;;;10.08;74.20;100058.59;5080429;28;20025;-71
2023/12/31 02:32:40;;;;;;;1.33;0.80;;;;;;;10.15;73.48;100070.56;5083884;28;20035;-71
2023/12/31 02:35:06;;;;;;;2.03;1.10;;;;;;;9.92;74.33;100064.63;5081966;28;20044;-71
2023/12/31 02:37:31;;;;;;;1.02;0.90;;;;;;;9.85;75.40;100052.69;5082975;28;20586;-71
2023/12/31 02:39:57;;;;;;;0.70;0.70;;;;;;;9.83;74.82;100041.31;5081420;28;20028;-71
2023/12/31 02:42:22;;;;;;;2.30;0.95;;;;;;;9.77;75.19;100033.72;5083023;28;20028;-71
2023/12/31 02:44:48;;;;;;;2.22;0.85;;;;;;;9.83;75.11;100029.91;5083960;28;20032;-71
2023/12/31 02:47:14;;;;;;;1.85;0.82;;;;;;;9.79;74.97;100029.25;5090283;28;20085;-71
2023/12/31 02:49:39;;;;;;;1.83;0.90;;;;;;;9.78;74.91;100010.81;5081529;28;20031;-71
2023/12/31 02:52:05;;;;;;;1.48;1.10;;;;;;;9.78;74.83;100016.09;5086108;28;20016;-71
2023/12/31 02:54:30;;;;;;;2.10;1.15;;;;;;;9.78;75.55;100006.38;5090944;28;20034;-71
2023/12/31 02:56:55;;;;;;;0.85;0.70;;;;;;;9.76;75.21;99994.22;5087308;28;20032;-71
2023/12/31 02:59:21;;;;;;;1.25;1.13;;;;;;;9.75;74.81;99996.00;5089352;28;20050;-71
2023/12/31 03:01:46;;;;;;;0.90;0.90;;;;;;;9.73;75.56;99992.56;5086030;28;20024;-71
2023/12/31 03:04:12;;;;;;;2.72;1.13;;;;;;;9.76;75.01;99989.78;5089502;28;20107;-71
2023/12/31 03:06:39;;;;;;;3.83;1.30;;;;;;;9.78;74.59;99987.91;5090794;28;20040;-71
2023/12/31 03:09:06;;;;;;;1.88;1.17;;;;;;;9.82;74.70;99976.28;5081102;28;20072;-70
2023/12/31 03:11:31;;;;;;;1.20;1.05;;;;;;;9.77;74.95;99973.00;5083932;28;20183;-71
2023/12/31 03:13:57;;;;;;;0.98;0.82;;;;;;;9.83;74.98;99974.47;5085608;28;20471;-71
2023/12/31 03:16:24;;;;;;;1.50;1.05;;;;;;;9.79;76.14;99975.56;5083052;28;20028;-71
2023/12/31 03:18:51;;;;;;;1.95;1.08;;;;;;;9.69;75.47;99965.47;5084809;28;20035;-69
2023/12/31 03:21:16;;;;;;;1.48;1.13;;;;;;;9.75;75.28;99951.13;5081862;28;20032;-69
2023/12/31 03:23:42;;;;;;;4.25;1.20;;;;;;;9.81;74.74;99949.97;5085352;28;20339;-68
2023/12/31 03:26:08;;;;;;;2.10;1.00;;;;;;;9.82;74.91;99936.66;5088888;28;20221;-68
2023/12/31 03:28:33;;;;;;;2.47;1.38;;;;;;;9.78;74.69;99927.19;5090206;28;20105;-68
2023/12/31 03:30:58;;;;;;;2.75;1.38;;;;;;;9.77;75.28;99925.50;5090040;28;20251;-68
2023/12/31 03:33:24;;;;;;;1.40;1.25;;;;;;;9.78;74.91;99921.06;5073690;28;20031;-69
2023/12/31 03:35:50;;;;;;;2.10;1.30;;;;;;;9.82;74.69;99914.69;5085561;28;20467;-68
2023/12/31 03:38:15;;;;;;;2.05;1.17;;;;;;;9.80;75.06;99898.97;5075281;28;20024;-70
2023/12/31 03:40:41;;;;;;;1.48;1.00;;;;;;;9.77;74.85;99900.91;5071491;28;20093;-68
2023/12/31 03:43:06;;;;;;;0.88;0.80;;;;;;;9.81;74.97;99894.53;5054590;28;20489;-69
2023/12/31 03:45:32;;;;;;;2.33;1.20;;;;;;;9.80;74.92;99877.84;5076264;28;20036;-69
2023/12/31 03:47:57;;;;;;;1.48;1.33;;;;;;;9.79;75.35;99875.25;5071590;28;20020;-68
2023/12/31 03:50:22;;;;;;;2.33;1.17;;;;;;;9.78;75.26;99866.50;5073439;28;20052;-69
2023/12/31 03:52:48;;;;;;;1.60;1.25;;;;;;;9.81;74.82;99860.22;5080486;28;20222;-69
2023/12/31 03:55:13;;;;;;;1.67;1.10;;;;;;;9.77;75.29;99856.03;5089218;28;20024;-69
2023/12/31 03:57:39;;;;;;;1.42;1.27;;;;;;;9.77;74.75;99851.59;5083098;28;20024;-68
2023/12/31 04:00:05;;;;;;;1.40;1.30;;;;;;;9.80;74.81;99845.31;5080985;28;20055;-68
2023/12/31 04:02:31;;;;;;;0.85;0.82;;;;;;;9.82;74.86;99841.63;5081853;28;20036;-68
2023/12/31 04:04:57;;;;;;;1.15;1.02;;;;;;;9.77;74.67;99837.53;5085205;28;20471;-69
2023/12/31 04:07:22;;;;;;;2.08;1.35;;;;;;;9.71;75.11;99830.81;5085149;28;20418;-69
2023/12/31 04:09:48;;;;;;;1.98;1.20;;;;;;;9.69;74.72;99822.09;5080193;28;20043;-69
2023/12/31 04:12:13;;;;;;;1.08;1.00;;;;;;;9.79;74.58;99818.06;5078108;28;20020;-68
2023/12/31 04:14:38;;;;;;;2.58;1.00;;;;;;;9.76;75.04;99812.94;5081952;28;20020;-70
2023/12/31 04:17:04;;;;;;;1.48;1.30;;;;;;;9.78;74.96;99799.66;5076460;28;21442;-68
2023/12/31 04:19:29;;;;;;;1.88;1.38;;;;;;;9.80;74.52;99792.53;5082567;28;20048;-68
2023/12/31 04:21:54;;;;;;;3.10;1.00;;;;;;;9.78;74.77;99789.09;5079971;28;20051;-68
2023/12/31 04:24:20;;;;;;;2.15;0.95;;;;;;;9.78;74.12;99791.72;5085600;28;20494;-68
2023/12/31 04:26:45;;;;;;;2.83;1.00;;;;;;;9.78;74.99;99800.50;5076364;28;20375;-68
2023/12/31 04:29:11;;;;;;;1.60;1.15;;;;;;;9.79;74.25;99786.38;5077644;28;20047;-70
2023/12/31 04:31:47;;;;;;;1.95;1.17;;;;;;;9.75;75.05;99769.00;5083987;28;20051;-70
2023/12/31 04:34:13;;;;;;;1.40;1.30;;;;;;;9.73;74.97;99770.88;5085607;28;20034;-70
2023/12/31 04:36:43;;;;;;;1.60;1.50;;;;;;;9.62;75.49;99773.25;5078356;28;20400;-70
2023/12/31 04:39:09;;;;;;;2.45;1.55;;;;;;;9.60;75.44;99765.38;5076139;28;20499;-69
2023/12/31 04:41:34;;;;;;;2.50;1.58;;;;;;;9.66;75.18;99774.78;5080192;28;20020;-70
2023/12/31 04:43:59;;;;;;;1.70;1.60;;;;;;;9.68;75.34;99762.34;5077986;28;20425;-70
2023/12/31 04:46:25;;;;;;;1.60;1.50;;;;;;;9.72;74.88;99761.25;5086073;28;20532;-70
2023/12/31 04:48:50;;;;;;;1.40;1.30;;;;;;;9.69;75.20;99759.59;5088954;28;20337;-70
2023/12/31 04:51:26;;;;;;;3.03;1.35;;;;;;;9.66;75.48;99751.03;5079178;28;20034;-71
2023/12/31 04:53:53;;;;;;;1.40;1.30;;;;;;;9.65;75.56;99746.66;5081684;28;20472;-70
2023/12/31 04:56:19;;;;;;;2.28;1.65;;;;;;;9.62;76.15;99741.56;5083505;28;20028;-70
2023/12/31 04:58:47;;;;;;;1.92;1.67;;;;;;;9.60;76.04;99727.59;5077899;28;20044;-70
2023/12/31 05:01:12;;;;;;;2.42;1.30;;;;;;;9.65;75.84;99728.19;5081797;28;20025;-70
2023/12/31 05:03:37;;;;;;;1.60;1.50;;;;;;;9.64;76.13;99714.16;5082662;28;20020;-71
2023/12/31 05:06:03;;;;;;;2.28;1.52;;;;;;;9.69;75.89;99714.75;5072778;28;20020;-71
2023/12/31 05:08:28;;;;;;;2.10;1.48;;;;;;;9.73;75.48;99711.94;5075911;28;20044;-70
2023/12/31 05:10:54;;;;;;;2.97;2.63;;;;;;;9.79;75.48;99714.25;5090834;28;20039;-71
2023/12/31 05:13:19;;;;;;;1.60;1.40;;;;;;;9.83;75.35;99702.59;5088455;28;20046;-70
2023/12/31 05:15:45;;;;;;;3.05;1.50;;;;;;;9.85;75.28;99706.00;5078856;28;20028;-70
2023/12/31 05:18:10;;;;;;;1.92;1.50;;;;;;;9.85;74.89;99687.53;5073954;28;20028;-71
2023/12/31 05:20:35;;;;;;;4.20;1.80;;;;;;;9.88;75.68;99696.09;5082499;28;20026;-70
2023/12/31 05:23:01;;;;;;;2.90;1.80;;;;;;;9.87;76.11;99678.56;5076305;28;20050;-70
2023/12/31 05:25:26;;;;;;;1.50;1.40;;;;;;;9.85;76.07;99679.63;5076409;28;20347;-71
2023/12/31 05:27:51;;;;;;;2.35;1.67;;;;;;;9.86;75.67;99673.38;5090713;28;20416;-70
2023/12/31 05:30:18;;;;;;;2.40;1.63;;;;;;;9.93;75.26;99665.06;5082979;28;20387;-71
2023/12/31 05:32:43;;;;;;;3.08;1.80;;;;;;;9.87;75.86;99651.31;5082589;28;20464;-70
2023/12/31 05:35:09;;;;;;;1.70;1.60;;;;;;;9.86;76.25;99661.03;5080528;28;20020;-71
2023/12/31 05:37:34;;;;;;;1.83;1.55;;;;;;;9.84;76.14;99647.09;5079665;28;20107;-71
2023/12/31 05:40:00;;;;;;;1.70;1.60;;;;;;;9.92;75.66;99650.13;5085104;28;20617;-71
2023/12/31 05:42:27;;;;;;;1.67;1.58;;;;;;;9.93;75.44;99632.50;5057048;28;20032;-70
2023/12/31 05:44:53;;;;;;;2.83;1.80;;;;;;;9.96;75.81;99637.59;5088209;28;20038;-70
2023/12/31 05:47:18;;;;;;;3.33;2.33;;;;;;;9.90;75.51;99635.31;5086980;28;20040;-70
2023/12/31 05:49:44;;;;;;;3.63;1.88;;;;;;;9.88;75.73;99631.91;5084660;28;20424;-70
2023/12/31 05:52:09;;;;;;;2.08;1.80;;;;;;;9.93;75.40;99625.44;5086752;28;20035;-71
2023/12/31 05:54:38;;;;;;;2.83;1.90;;;;;;;9.90;76.24;99624.75;5082810;28;20060;-70
2023/12/31 05:57:03;;;;;;;3.42;1.85;;;;;;;9.87;75.81;99617.84;5084094;28;20028;-71
2023/12/31 05:59:28;;;;;;;2.63;2.42;;;;;;;9.90;76.25;99616.84;5089609;28;20043;-69
2023/12/31 06:01:54;;;;;;;1.88;1.67;;;;;;;9.90;76.20;99603.66;5085843;28;20036;-69
2023/12/31 06:04:19;;;;;;;2.13;1.77;;;;;;;9.91;76.44;99621.19;5095505;28;20118;-68
2023/12/31 06:06:45;;;;;;;2.85;2.20;;;;;;;9.89;76.43;99615.16;5086644;28;20425;-69
2023/12/31 06:09:10;;;;;;;2.95;2.10;;;;;;;9.92;76.06;99612.31;5093337;28;20048;-68
2023/12/31 06:11:35;;;;;;;3.25;1.88;;;;;;;9.97;75.68;99603.19;5089978;28;20020;-68
2023/12/31 06:14:02;;;;;;;2.83;2.00;;;;;;;9.97;75.71;99611.09;5077779;28;20313;-68
2023/12/31 06:16:28;;;;;;;4.43;1.85;;;;;;;9.90;76.01;99593.09;5071900;28;20036;-69
2023/12/31 06:18:53;;;;;;;3.85;1.70;;;;;;;9.90;76.37;99599.22;5080227;28;20028;-69
2023/12/31 06:21:19;;;;;;;2.63;1.88;;;;;;;9.82;76.54;99601.44;5082398;28;20024;-68
2023/12/31 06:23:44;;;;;;;2.50;1.80;;;;;;;9.79;76.56;99582.28;5083210;28;20029;-69
2023/12/31 06:26:09;;;;;;;2.38;1.90;;;;;;;9.75;76.92;99593.97;5078888;28;20039;-68
2023/12/31 06:28:35;;;;;;;3.20;2.08;;;;;;;9.80;76.85;99586.63;5088519;28;20062;-69
2023/12/31 06:31:00;;;;;;;1.80;1.50;;;;;;;9.74;76.84;99582.53;5087954;28;20526;-69
2023/12/31 06:33:26;;;;;;;3.28;2.08;;;;;;;9.74;76.44;99581.69;5086024;28;20047;-68
2023/12/31 06:35:52;;;;;;;2.40;1.98;;;;;;;9.69;77.10;99566.97;5087831;28;20032;-69
2023/12/31 06:38:17;;;;;;;2.00;1.73;;;;;;;9.75;76.73;99563.16;5083619;28;20024;-68
2023/12/31 06:40:42;;;;;;;1.92;1.65;;;;;;;9.75;76.90;99564.94;5077947;28;20174;-68
2023/12/31 06:43:08;;;;;;;3.78;2.00;;;;;;;9.80;76.26;99554.97;5076402;28;20439;-69
2023/12/31 06:45:33;;;;;;;3.70;2.10;;;;;;;9.78;76.28;99543.63;5074105;28;20426;-69
2023/12/31 06:47:58;;;;;;;2.53;1.73;;;;;;;9.80;76.34;99539.97;5079214;28;20515;-70
2023/12/31 06:50:24;;;;;;;1.80;1.65;;;;;;;9.86;76.07;99539.59;5090596;28;20027;-68
2023/12/31 06:52:49;;;;;;;3.00;2.10;;;;;;;9.88;76.21;99528.94;5085532;28;20107;-69
2023/12/31 06:55:14;;;;;;;3.20;1.90;;;;;;;9.87;75.98;99521.97;5085472;28;20498;-68
2023/12/31 06:57:40;;;;;;;4.63;2.05;;;;;;;9.86;76.33;99520.28;5081792;28;20055;-68
2023/12/31 07:00:08;;;;;;;2.17;1.85;;;;;;;9.92;75.90;99527.84;5081650;28;20026;-69
2023/12/31 07:02:33;;;;;;;3.95;1.67;;;;;;;9.96;75.96;99516.16;5086040;28;20028;-68
2023/12/31 07:04:59;;;;;;;2.70;1.63;;;;;;;10.05;75.42;99512.97;5085538;28;20032;-68
2023/12/31 07:07:24;;;;;;;2.22;1.60;;;;;;;10.07;76.08;99505.84;5080240;28;20062;-69
2023/12/31 07:09:49;;;;;;;3.50;1.83;;;;;;;10.05;75.64;99507.69;5085383;28;20040;-68
2023/12/31 07:12:15;;;;;;;2.22;1.70;;;;;;;10.09;75.91;99498.66;5089958;28;20387;-69
2023/12/31 07:14:40;;;;;;;1.88;1.70;;;;;;;10.13;75.88;99501.97;5084171;28;20028;-68
2023/12/31 07:17:06;;;;;;;2.05;1.77;;;;;;;10.16;75.86;99494.69;5076032;28;20028;-69
2023/12/31 07:19:31;;;;;;;3.00;1.80;;;;;;;10.18;75.67;99499.91;5084770;28;20213;-71
2023/12/31 07:21:56;;;;;;;2.20;1.60;;;;;;;10.27;75.52;99488.81;5087232;28;20047;-68
2023/12/31 07:24:22;;;;;;;2.25;1.48;;;;;;;10.39;74.96;99481.91;5082389;28;20059;-68
2023/12/31 07:26:47;;;;;;;2.28;1.77;;;;;;;10.46;74.57;99470.88;5074362;28;20085;-69
2023/12/31 07:29:13;;;;;;;1.80;1.55;;;;;;;10.50;74.18;99470.72;5080270;28;20107;-69
2023/12/31 07:31:38;;;;;;;2.17;1.27;;;;;;;10.53;73.82;99466.06;5083113;28;20062;-68
2023/12/31 07:34:05;;;;;;;2.65;1.73;;;;;;;10.58;73.98;99471.06;5079257;28;20024;-69
2023/12/31 07:36:30;;;;;;;3.05;1.63;;;;;;;10.56;74.14;99476.44;5084310;28;20035;-68
2023/12/31 07:38:55;;;;;;;1.75;1.65;;;;;;;10.59;74.49;99468.34;5077688;28;20145;-68
2023/12/31 07:41:21;;;;;;;1.50;1.27;;;;;;;10.57;74.17;99467.56;5085076;28;20043;-68
2023/12/31 07:43:46;;;;;;;1.80;1.48;;;;;;;10.61;73.67;99458.50;5089079;28;20416;-68
2023/12/31 07:46:13;;;;;;;1.83;1.70;;;;;;;10.58;74.03;99456.06;5081782;28;20032;-70
2023/12/31 07:48:39;;;;;;;2.33;1.85;;;;;;;10.66;73.46;99448.50;5073629;28;20466;-68
2023/12/31 07:51:06;;;;;;;2.33;1.67;;;;;;;10.77;73.05;99447.84;5078969;28;20099;-69
2023/12/31 07:53:32;;;;;;;1.80;1.60;;;;;;;10.79;72.61;99443.28;5076615;28;20032;-68
2023/12/31 07:55:57;;;;;;;3.00;1.50;;;;;;;10.90;72.54;99438.16;5082970;28;20050;-69
2023/12/31 07:58:24;;;;;;;1.92;1.83;;;;;;;11.02;72.72;99438.34;5079020;28;20028;-68
2023/12/31 08:00:50;;;;;;;2.42;1.60;;;;;;;10.95;72.81;99435.22;5076623;28;20054;-69
2023/12/31 08:03:15;;;;;;;2.60;1.58;;;;;;;11.00;73.26;99446.34;5080901;28;20043;-69
2023/12/31 08:05:41;;;;;;;2.20;1.52;;;;;;;10.91;73.88;99424.03;5078810;28;20407;-68
2023/12/31 08:08:09;;;;;;;2.20;1.98;;;;;;;10.87;73.75;99445.47;5082490;28;20451;-69
2023/12/31 08:10:35;;;;;;;2.45;1.98;;;;;;;10.84;74.53;99430.63;5083880;28;20027;-68
2023/12/31 08:13:01;;;;;;;2.30;1.85;;;;;;;10.89;73.61;99420.59;5074150;28;20070;-69
2023/12/31 08:15:26;;;;;;;2.40;1.75;;;;;;;10.93;74.32;99422.13;5070900;28;20150;-70
2023/12/31 08:17:51;;;;;;;2.00;1.60;;;;;;;10.91;74.38;99424.03;5079078;28;20035;-69
2023/12/31 08:20:17;;;;;;;2.05;1.85;;;;;;;10.91;74.42;99423.16;5073244;28;20081;-69
2023/12/31 08:22:42;;;;;;;2.30;2.10;;;;;;;10.92;74.26;99430.16;5072830;28;20055;-69
2023/12/31 08:25:07;;;;;;;2.15;1.95;;;;;;;11.07;73.53;99439.75;5074054;28;20648;-70
2023/12/31 08:27:33;;;;;;;1.55;1.45;;;;;;;11.10;74.37;99426.31;5073507;28;20463;-70
2023/12/31 08:29:58;;;;;;;2.33;1.70;;;;;;;11.08;74.02;99437.94;5071104;28;20024;-71
2023/12/31 08:32:28;;;;;;;2.22;1.70;;;;;;;11.07;73.81;99426.50;5072983;28;20027;-72
2023/12/31 08:34:54;;;;;;;3.15;1.65;;;;;;;11.12;73.96;99432.34;5078700;28;20032;-71
2023/12/31 08:37:19;;;;;;;1.77;1.40;;;;;;;11.09;75.21;99431.69;5078412;28;20023;-71
2023/12/31 08:39:44;;;;;;;3.53;1.75;;;;;;;10.96;75.77;99429.84;5078996;28;20028;-72
2023/12/31 08:42:10;;;;;;;3.83;1.90;;;;;;;10.95;76.06;99428.13;5071426;28;20020;-72
2023/12/31 08:44:35;;;;;;;2.30;2.10;;;;;;;10.82;77.70;99431.66;5070787;28;20027;-72
2023/12/31 08:47:00;;;;;;;2.00;1.75;;;;;;;10.71;78.21;99411.22;5062588;28;20159;-72
2023/12/31 08:49:29;;;;;;;2.17;1.98;;;;;;;10.66;78.36;99430.00;5069167;28;20042;-72
2023/12/31 08:51:55;;;;;;;1.95;1.75;;;;;;;10.65;78.53;99409.81;5069498;28;20020;-72
2023/12/31 08:54:20;;;;;;;2.83;1.70;;;;;;;10.79;79.14;99424.78;5068995;28;20407;-72
2023/12/31 08:56:46;;;;;;;2.55;1.80;;;;;;;10.77;78.57;99410.84;5076465;28;20025;-72
2023/12/31 08:59:11;;;;;;;1.80;1.35;;;;;;;10.73;79.03;99410.19;5071303;28;20060;-72
2023/12/31 09:01:36;;;;;;;2.08;1.98;;;;;;;10.66;79.64;99431.81;5072247;28;20137;-72
2023/12/31 09:04:02;;;;;;;3.22;2.00;;;;;;;10.63;80.59;99418.75;5077832;28;20040;-72
2023/12/31 09:06:29;;;;;;;1.70;1.58;;;;;;;10.52;81.41;99424.72;5084314;28;20025;-72
2023/12/31 09:08:54;;;;;;;2.92;2.20;;;;;;;10.45;82.33;99428.72;5072089;28;20177;-72
2023/12/31 09:11:20;;;;;;;2.22;1.58;;;;;;;10.44;81.73;99419.94;5085143;28;20019;-72
2023/12/31 09:13:45;;;;;;;1.92;1.63;;;;;;;10.36;82.41;99434.56;5077325;28;20032;-72
2023/12/31 09:16:11;;;;;;;2.40;1.83;;;;;;;10.36;82.45;99430.13;5085958;28;20027;-72
2023/12/31 09:18:36;;;;;;;2.65;1.83;;;;;;;10.41;81.48;99437.78;5075653;28;20297;-72
2023/12/31 09:21:02;;;;;;;2.50;1.17;;;;;;;10.41;79.56;99424.56;5074272;28;20054;-72
2023/12/31 09:23:27;;;;;;;1.65;1.30;;;;;;;10.53;80.57;99452.00;5074520;28;20093;-71
2023/12/31 09:25:53;;;;;;;2.40;1.23;;;;;;;10.54;78.83;99458.97;5076697;28;20029;-71
2023/12/31 09:28:19;;;;;;;1.58;1.20;;;;;;;10.55;78.92;99456.25;5079721;28;20047;-72
2023/12/31 09:30:46;;;;;;;1.42;0.90;;;;;;;10.55;78.53;99458.91;5075111;28;20024;-71
2023/12/31 09:33:13;;;;;;;1.10;1.00;;;;;;;10.49;78.62;99464.56;5077314;28;20024;-71
2023/12/31 09:35:38;;;;;;;1.08;0.98;;;;;;;10.50;78.83;99461.00;5079308;28;20494;-71
2023/12/31 09:38:03;;;;;;;0.90;0.80;;;;;;;10.58;78.29;99469.25;5055001;28;20032;-71
2023/12/31 09:40:29;;;;;;;2.80;0.80;;;;;;;10.55;77.30;99469.47;5080332;28;20028;-72
2023/12/31 09:42:54;;;;;;;0.85;0.80;;;;;;;10.54;77.34;99465.16;5079315;28;20418;-71
2023/12/31 09:45:23;;;;;;;1.08;0.98;;;;;;;10.61;77.02;99470.88;5054237;28;20028;-71
2023/12/31 09:47:49;;;;;;;1.70;0.73;;;;;;;10.58;76.88;99487.75;5073703;28;20020;-71
2023/12/31 09:50:18;;;;;;;0.60;0.60;;;;;;;10.65;77.05;99475.03;5076217;28;20035;-71
2023/12/31 09:52:46;;;;;;;1.95;1.00;;;;;;;10.65;77.32;99460.03;5074941;28;20039;-69
2023/12/31 09:55:12;;;;;;;0.98;0.70;;;;;;;10.63;76.99;99468.97;5086591;28;20028;-69
2023/12/31 09:57:42;;;;;;;1.70;0.90;;;;;;;10.59;77.59;99489.50;5081760;28;20365;-69
2023/12/31 10:00:08;;;;;;;0.80;0.80;;;;;;;10.51;76.36;99486.47;5087969;28;20028;-69
2023/12/31 10:02:33;;;;;;;2.05;0.85;;;;;;;10.58;76.36;99494.84;5078072;28;20181;-70
2023/12/31 10:05:00;;;;;;;2.53;0.98;;;;;;;10.63;78.24;99495.41;5082413;28;20582;-69
2023/12/31 10:07:26;;;;;;;2.33;0.85;;;;;;;10.52;76.03;99479.38;5084043;28;20036;-69
2023/12/31 10:09:54;;;;;;;0.77;0.77;;;;;;;10.50;75.06;99473.34;5085782;28;20044;-70
2023/12/31 10:12:20;;;;;;;0.73;0.50;;;;;;;10.64;75.23;99473.34;5083482;28;20024;-69
2023/12/31 10:14:46;;;;;;;3.65;0.85;;;;;;;10.65;74.18;99469.75;5084991;28;20093;-69
2023/12/31 10:17:11;;;;;;;1.50;0.60;;;;;;;10.79;73.40;99479.47;5075113;28;20420;-69
2023/12/31 10:19:39;;;;;;;2.50;0.70;;;;;;;10.82;72.35;99476.59;5087453;28;20030;-70
2023/12/31 10:22:05;;;;;;;0.63;0.55;;;;;;;10.86;71.58;99467.53;5085366;28;20039;-71
2023/12/31 10:24:31;;;;;;;0.60;0.60;;;;;;;10.86;72.46;99481.59;5081345;28;20033;-71
2023/12/31 10:27:00;;;;;;;4.28;1.02;;;;;;;10.75;73.88;99489.38;5082583;28;20024;-71
2023/12/31 10:29:25;;;;;;;1.42;0.77;;;;;;;10.42;76.85;99464.09;5079888;28;20392;-71
2023/12/31 10:31:52;;;;;;;1.80;0.90;;;;;;;10.29;80.25;99470.22;5080679;28;20020;-72
2023/12/31 10:34:18;;;;;;;1.50;0.73;;;;;;;10.20;79.91;99488.28;5077492;28;20034;-72
2023/12/31 10:36:45;;;;;;;1.80;1.00;;;;;;;10.04;82.05;99487.53;5076830;28;20020;-72
2023/12/31 10:39:25;;;;;;;1.48;0.80;;;;;;;10.04;82.21;99473.47;5075984;28;20016;-72
2023/12/31 10:41:56;;;;;;;3.35;1.75;;;;;;;9.92;82.87;99481.16;5078873;28;20082;-72
2023/12/31 10:44:23;;;;;;;1.23;0.88;;;;;;;9.83;83.50;99475.56;5081618;28;20032;-72
2023/12/31 10:46:52;;;;;;;1.10;1.00;;;;;;;9.71;86.14;99480.66;5083387;28;20032;-73
2023/12/31 10:49:21;;;;;;;1.00;0.90;;;;;;;9.66;86.95;99476.59;5076841;28;20024;-74
2023/12/31 10:51:49;;;;;;;5.78;1.63;;;;;;;9.51;87.05;99474.81;5058526;28;20377;-73
2023/12/31 10:54:28;;;;;;;1.15;0.82;;;;;;;9.43;87.91;99489.31;5078752;28;20027;-73
2023/12/31 10:56:54;;;;;;;2.95;1.00;;;;;;;9.42;89.33;99494.69;5079613;28;20032;-72
2023/12/31 10:59:20;;;;;;;7.18;1.00;;;;;;;9.57;87.69;99485.03;5086052;28;20024;-80
2023/12/31 11:01:47;;;;;;;1.58;0.75;;;;;;;9.66;87.73;99482.72;5079854;28;20085;-78
2023/12/31 11:04:15;;;;;;;0.88;0.70;;;;;;;9.68;87.18;99472.06;5061741;28;20032;-72
2023/12/31 11:06:42;;;;;;;2.17;0.90;;;;;;;9.79;85.16;99479.34;5076570;28;20036;-71
2023/12/31 11:09:08;;;;;;;1.55;0.70;;;;;;;9.79;83.90;99468.78;5076970;28;20230;-72
2023/12/31 11:11:36;;;;;;;4.40;1.35;;;;;;;9.91;84.21;99484.75;5073341;28;20328;-72
2023/12/31 11:14:04;;;;;;;2.35;1.00;;;;;;;10.00;83.11;99482.50;5050577;28;20422;-72
2023/12/31 11:17:07;;;;;;;2.92;1.10;;;;;;;10.06;83.07;99477.69;5064923;28;20031;-72
2023/12/31 11:19:48;;;;;;;0.77;0.50;;;;;;;10.19;82.35;99489.22;5068040;28;20040;-71
2023/12/31 11:22:34;;;;;;;2.03;0.65;;;;;;;10.11;81.65;99480.91;5076091;28;20024;-71
2023/12/31 11:25:02;;;;;;;3.63;0.75;;;;;;;10.25;80.18;99498.59;5061251;28;20031;-71
2023/12/31 11:27:31;;;;;;;3.67;0.90;;;;;;;10.46;79.58;99480.63;5081914;28;20519;-71
2023/12/31 11:29:58;;;;;;;2.95;0.80;;;;;;;10.76;78.08;99498.16;5074951;28;20076;-73
2023/12/31 11:32:25;;;;;;;1.10;0.50;;;;;;;10.99;77.03;99484.34;5086686;28;20036;-76